sensor_id;sensor_type;location;lat;lon;timestamp;pressure;altitude;pressure_sealevel;temperature;humidity
55077;BME280;40971;44.702;11.030;2024-03-07T00:09:33;101637.25;;;7.66;100.00
55077;BME280;40971;44.702;11.030;2024-03-07T00:19:36;101637.69;;;7.82;100.00
55077;BME280;40971;44.702;11.030;2024-03-07T00:29:37;101650.84;;;8.02;100.00
55077;BME280;40971;44.702;11.030;2024-03-07T00:39:41;101651.94;;;8.00;100.00
55077;BME280;40971;44.702;11.030;2024-03-07T00:49:43;101652.06;;;7.98;100.00
55077;BME280;40971;44.702;11.030;2024-03-07T00:59:47;101651.19;;;8.09;100.00
55077;BME280;40971;44.702;11.030;2024-03-07T01:09:49;101650.94;;;8.12;100.00
55077;BME280;40971;44.702;11.030;2024-03-07T01:19:52;101647.94;;;8.16;100.00
55077;BME280;40971;44.702;11.030;2024-03-07T01:29:55;101624.53;;;8.15;100.00
55077;BME280;40971;44.702;11.030;2024-03-07T01:39:56;101619.19;;;8.05;100.00
55077;BME280;40971;44.702;11.030;2024-03-07T01:49:58;101613.84;;;7.96;100.00
55077;BME280;40971;44.702;11.030;2024-03-07T02:00:01;101610.44;;;7.95;100.00
55077;BME280;40971;44.702;11.030;2024-03-07T02:10:08;101612.44;;;7.92;100.00
55077;BME280;40971;44.702;11.030;2024-03-07T02:20:11;101607.72;;;7.86;100.00
55077;BME280;40971;44.702;11.030;2024-03-07T02:30:14;101594.03;;;7.82;100.00
55077;BME280;40971;44.702;11.030;2024-03-07T02:40:15;101597.22;;;7.86;100.00
55077;BME280;40971;44.702;11.030;2024-03-07T02:50:19;101587.41;;;7.99;100.00
55077;BME280;40971;44.702;11.030;2024-03-07T03:00:23;101591.50;;;7.92;100.00
55077;BME280;40971;44.702;11.030;2024-03-07T03:10:28;101586.03;;;7.95;100.00
55077;BME280;40971;44.702;11.030;2024-03-07T03:20:35;101583.69;;;7.81;100.00
55077;BME280;40971;44.702;11.030;2024-03-07T03:30:42;101577.53;;;7.71;100.00
55077;BME280;40971;44.702;11.030;2024-03-07T03:40:44;101585.34;;;7.82;100.00
55077;BME280;40971;44.702;11.030;2024-03-07T03:50:46;101580.63;;;7.76;100.00
55077;BME280;40971;44.702;11.030;2024-03-07T04:00:49;101575.00;;;7.80;100.00
55077;BME280;40971;44.702;11.030;2024-03-07T04:10:50;101578.06;;;7.53;100.00
55077;BME280;40971;44.702;11.030;2024-03-07T04:20:53;101587.34;;;7.46;100.00
55077;BME280;40971;44.702;11.030;2024-03-07T04:30:55;101583.66;;;7.49;100.00
55077;BME280;40971;44.702;11.030;2024-03-07T04:40:58;101584.63;;;7.48;100.00
55077;BME280;40971;44.702;11.030;2024-03-07T04:51:01;101608.53;;;6.88;100.00
55077;BME280;40971;44.702;11.030;2024-03-07T05:01:02;101621.22;;;6.81;100.00
55077;BME280;40971;44.702;11.030;2024-03-07T05:11:05;101603.78;;;6.93;100.00
55077;BME280;40971;44.702;11.030;2024-03-07T05:21:07;101597.38;;;6.86;100.00
55077;BME280;40971;44.702;11.030;2024-03-07T05:31:28;101616.34;;;6.66;100.00
55077;BME280;40971;44.702;11.030;2024-03-07T05:41:29;101620.84;;;6.64;100.00
55077;BME280;40971;44.702;11.030;2024-03-07T05:51:30;101621.75;;;6.52;100.00
55077;BME280;40971;44.702;11.030;2024-03-07T06:01:34;101624.75;;;6.23;100.00
55077;BME280;40971;44.702;11.030;2024-03-07T06:11:36;101629.47;;;6.18;100.00
55077;BME280;40971;44.702;11.030;2024-03-07T06:21:39;101633.28;;;6.25;100.00
55077;BME280;40971;44.702;11.030;2024-03-07T06:31:43;101655.91;;;6.37;100.00
55077;BME280;40971;44.702;11.030;2024-03-07T06:41:45;101652.44;;;6.61;100.00
55077;BME280;40971;44.702;11.030;2024-03-07T06:51:48;101653.69;;;7.23;100.00
55077;BME280;40971;44.702;11.030;2024-03-07T07:01:50;101650.41;;;7.97;100.00
55077;BME280;40971;44.702;11.030;2024-03-07T07:11:52;101658.41;;;8.59;100.00
55077;BME280;40971;44.702;11.030;2024-03-07T07:21:54;101665.75;;;9.86;100.00
55077;BME280;40971;44.702;11.030;2024-03-07T07:31:56;101675.88;;;9.51;93.56
55077;BME280;40971;44.702;11.030;2024-03-07T07:41:59;101674.03;;;9.82;94.53
55077;BME280;40971;44.702;11.030;2024-03-07T07:52:00;101678.25;;;10.71;84.17
55077;BME280;40971;44.702;11.030;2024-03-07T08:02:05;101679.56;;;11.50;81.61
55077;BME280;40971;44.702;11.030;2024-03-07T08:12:07;101675.06;;;12.32;79.53
55077;BME280;40971;44.702;11.030;2024-03-07T08:22:11;101675.34;;;12.90;74.93
55077;BME280;40971;44.702;11.030;2024-03-07T08:32:12;101670.88;;;12.65;78.91
55077;BME280;40971;44.702;11.030;2024-03-07T08:42:14;101669.00;;;12.75;76.93
55077;BME280;40971;44.702;11.030;2024-03-07T08:52:17;101668.88;;;12.41;75.12
55077;BME280;40971;44.702;11.030;2024-03-07T09:02:20;101683.28;;;12.47;76.15
55077;BME280;40971;44.702;11.030;2024-03-07T09:12:21;101682.78;;;12.69;76.33
55077;BME280;40971;44.702;11.030;2024-03-07T09:22:25;101683.03;;;12.75;77.84
55077;BME280;40971;44.702;11.030;2024-03-07T09:32:26;101682.91;;;13.28;78.01
55077;BME280;40971;44.702;11.030;2024-03-07T09:42:33;101672.16;;;13.64;75.38
55077;BME280;40971;44.702;11.030;2024-03-07T09:52:35;101666.13;;;13.46;73.24
55077;BME280;40971;44.702;11.030;2024-03-07T10:02:39;101679.72;;;13.51;75.17
55077;BME280;40971;44.702;11.030;2024-03-07T10:12:41;101683.47;;;13.14;73.77
55077;BME280;40971;44.702;11.030;2024-03-07T10:22:42;101674.44;;;12.99;75.07
55077;BME280;40971;44.702;11.030;2024-03-07T10:32:44;101673.31;;;13.27;70.61
55077;BME280;40971;44.702;11.030;2024-03-07T10:42:46;101685.59;;;13.36;69.67
55077;BME280;40971;44.702;11.030;2024-03-07T10:52:59;101683.94;;;13.43;68.60
55077;BME280;40971;44.702;11.030;2024-03-07T11:03:04;101675.81;;;13.71;69.66
55077;BME280;40971;44.702;11.030;2024-03-07T11:13:09;101660.06;;;14.19;71.64
55077;BME280;40971;44.702;11.030;2024-03-07T11:23:29;101659.47;;;14.41;66.75
55077;BME280;40971;44.702;11.030;2024-03-07T11:33:33;101646.84;;;14.92;64.27
55077;BME280;40971;44.702;11.030;2024-03-07T11:43:34;101631.88;;;15.23;63.48
55077;BME280;40971;44.702;11.030;2024-03-07T11:53:38;101621.19;;;15.47;54.11
55077;BME280;40971;44.702;11.030;2024-03-07T12:03:39;101610.09;;;15.83;59.73
55077;BME280;40971;44.702;11.030;2024-03-07T12:13:40;101603.34;;;16.40;51.79
55077;BME280;40971;44.702;11.030;2024-03-07T12:23:42;101594.56;;;16.77;52.14
55077;BME280;40971;44.702;11.030;2024-03-07T12:33:43;101579.84;;;17.39;52.59
55077;BME280;40971;44.702;11.030;2024-03-07T12:43:47;101576.38;;;17.54;51.40
55077;BME280;40971;44.702;11.030;2024-03-07T12:53:49;101571.38;;;16.56;49.16
55077;BME280;40971;44.702;11.030;2024-03-07T13:03:50;101548.13;;;17.17;49.39
55077;BME280;40971;44.702;11.030;2024-03-07T13:13:51;101532.84;;;17.40;48.07
55077;BME280;40971;44.702;11.030;2024-03-07T13:23:53;101528.88;;;15.82;49.02
55077;BME280;40971;44.702;11.030;2024-03-07T13:33:54;101528.22;;;14.87;53.52
55077;BME280;40971;44.702;11.030;2024-03-07T13:43:55;101528.59;;;14.76;53.19
55077;BME280;40971;44.702;11.030;2024-03-07T13:53:57;101523.75;;;14.80;52.72
55077;BME280;40971;44.702;11.030;2024-03-07T14:36:00;101489.22;;;14.73;56.26
55077;BME280;40971;44.702;11.030;2024-03-07T14:46:01;101477.69;;;15.81;52.11
55077;BME280;40971;44.702;11.030;2024-03-07T14:56:04;101485.44;;;15.37;55.79
55077;BME280;40971;44.702;11.030;2024-03-07T15:06:05;101479.09;;;15.15;54.02
55077;BME280;40971;44.702;11.030;2024-03-07T15:16:09;101481.81;;;14.99;56.23
55077;BME280;40971;44.702;11.030;2024-03-07T15:26:10;101474.56;;;14.54;54.21
55077;BME280;40971;44.702;11.030;2024-03-07T15:36:13;101471.75;;;14.56;56.75
55077;BME280;40971;44.702;11.030;2024-03-07T15:46:14;101459.41;;;14.24;56.36
55077;BME280;40971;44.702;11.030;2024-03-07T15:56:18;101453.63;;;14.13;56.91
55077;BME280;40971;44.702;11.030;2024-03-07T16:06:20;101458.94;;;13.96;59.35
55077;BME280;40971;44.702;11.030;2024-03-07T16:16:22;101440.47;;;13.72;59.77
55077;BME280;40971;44.702;11.030;2024-03-07T16:26:23;101447.91;;;13.53;59.66
55077;BME280;40971;44.702;11.030;2024-03-07T16:36:25;101450.03;;;13.49;60.61
55077;BME280;40971;44.702;11.030;2024-03-07T16:46:27;101448.22;;;13.58;60.62
55077;BME280;40971;44.702;11.030;2024-03-07T16:56:28;101446.53;;;13.24;62.62
55077;BME280;40971;44.702;11.030;2024-03-07T17:06:29;101451.78;;;12.66;65.32
55077;BME280;40971;44.702;11.030;2024-03-07T17:16:31;101457.47;;;11.94;69.21
55077;BME280;40971;44.702;11.030;2024-03-07T17:26:33;101455.31;;;11.72;72.14
55077;BME280;40971;44.702;11.030;2024-03-07T17:36:37;101467.31;;;11.57;73.42
55077;BME280;40971;44.702;11.030;2024-03-07T17:46:41;101468.19;;;11.13;75.51
55077;BME280;40971;44.702;11.030;2024-03-07T17:56:43;101458.66;;;10.84;76.86
55077;BME280;40971;44.702;11.030;2024-03-07T18:06:44;101463.16;;;10.74;77.93
55077;BME280;40971;44.702;11.030;2024-03-07T18:16:49;101465.47;;;10.50;79.38
55077;BME280;40971;44.702;11.030;2024-03-07T18:26:55;101452.28;;;10.23;79.81
55077;BME280;40971;44.702;11.030;2024-03-07T18:36:57;101459.22;;;9.95;79.58
55077;BME280;40971;44.702;11.030;2024-03-07T18:46:58;101446.81;;;9.78;79.24
55077;BME280;40971;44.702;11.030;2024-03-07T18:57:04;101449.03;;;9.44;80.35
55077;BME280;40971;44.702;11.030;2024-03-07T19:07:10;101440.47;;;9.42;78.66
55077;BME280;40971;44.702;11.030;2024-03-07T19:17:12;101443.78;;;9.15;78.10
55077;BME280;40971;44.702;11.030;2024-03-07T19:27:15;101444.56;;;8.97;76.92
55077;BME280;40971;44.702;11.030;2024-03-07T19:37:19;101458.91;;;8.93;76.43
55077;BME280;40971;44.702;11.030;2024-03-07T19:47:23;101450.28;;;8.71;77.27
55077;BME280;40971;44.702;11.030;2024-03-07T19:57:26;101464.31;;;8.61;78.18
55077;BME280;40971;44.702;11.030;2024-03-07T20:07:29;101462.88;;;8.47;78.79
55077;BME280;40971;44.702;11.030;2024-03-07T20:17:33;101464.44;;;8.29;80.06
55077;BME280;40971;44.702;11.030;2024-03-07T20:27:36;101476.38;;;8.22;80.58
55077;BME280;40971;44.702;11.030;2024-03-07T20:37:40;101476.22;;;8.23;80.41
55077;BME280;40971;44.702;11.030;2024-03-07T20:47:44;101463.00;;;8.25;81.13
55077;BME280;40971;44.702;11.030;2024-03-07T20:57:50;101465.59;;;8.36;79.94
55077;BME280;40971;44.702;11.030;2024-03-07T21:07:52;101479.47;;;8.27;81.43
55077;BME280;40971;44.702;11.030;2024-03-07T21:17:55;101476.88;;;8.16;82.76
55077;BME280;40971;44.702;11.030;2024-03-07T21:27:56;101479.47;;;8.06;83.87
55077;BME280;40971;44.702;11.030;2024-03-07T21:37:58;101475.22;;;7.94;84.26
55077;BME280;40971;44.702;11.030;2024-03-07T21:48:00;101465.72;;;7.73;85.84
55077;BME280;40971;44.702;11.030;2024-03-07T21:58:03;101471.91;;;7.72;86.55
55077;BME280;40971;44.702;11.030;2024-03-07T22:08:05;101478.66;;;7.53;87.55
55077;BME280;40971;44.702;11.030;2024-03-07T22:18:07;101483.69;;;7.34;87.36
55077;BME280;40971;44.702;11.030;2024-03-07T22:28:10;101480.94;;;6.71;90.71
55077;BME280;40971;44.702;11.030;2024-03-07T22:38:14;101471.69;;;6.33;95.40
55077;BME280;40971;44.702;11.030;2024-03-07T22:48:16;101463.84;;;6.22;96.20
55077;BME280;40971;44.702;11.030;2024-03-07T22:58:19;101467.38;;;6.10;98.33
55077;BME280;40971;44.702;11.030;2024-03-07T23:08:21;101459.16;;;6.04;98.03
55077;BME280;40971;44.702;11.030;2024-03-07T23:18:24;101458.72;;;6.10;97.99
55077;BME280;40971;44.702;11.030;2024-03-07T23:28:25;101464.38;;;6.04;98.08
55077;BME280;40971;44.702;11.030;2024-03-07T23:38:29;101464.00;;;5.86;99.17
55077;BME280;40971;44.702;11.030;2024-03-07T23:48:31;101478.16;;;5.47;98.92
55077;BME280;40971;44.702;11.030;2024-03-07T23:58:32;101472.03;;;5.24;100.00
